Time;durP1;ratioP1;P1;durP2;ratioP2;P2;SDS_P1;SDS_P2;PMS_P1;PMS_P2;Temp;Humidity;BMP_temperature;BMP_pressure;BME280_temperature;BME280_humidity;BME280_pressure;Samples;Min_cycle;Max_cycle;Signal;HPM_P1;HPM_P2
2023/11/18 00:02:50;;;;;;;13.65;3.70;;;;;;;4.50;68.03;100837.66;10516912;28;20063;-67
2023/11/18 00:07:53;;;;;;;18.33;4.25;;;;;;;4.63;67.78;100828.75;10508713;28;20160;-68
2023/11/18 00:12:55;;;;;;;50.85;4.88;;;;;;;4.74;67.90;100825.91;10499779;28;20040;-68
2023/11/18 00:17:56;;;;;;;22.73;4.30;;;;;;;4.75;67.67;100835.41;10501442;28;20126;-68
2023/11/18 00:22:59;;;;;;;8.43;3.63;;;;;;;4.82;67.52;100834.38;10500640;28;20051;-67
2023/11/18 00:28:01;;;;;;;10.82;4.00;;;;;;;4.68;67.51;100839.88;10512751;28;20054;-67
2023/11/18 00:33:03;;;;;;;9.90;4.30;;;;;;;4.73;67.75;100832.00;10513670;28;20143;-68
2023/11/18 00:38:05;;;;;;;10.52;3.63;;;;;;;4.45;67.83;100834.34;10502983;28;20059;-68
2023/11/18 00:43:08;;;;;;;16.20;4.15;;;;;;;4.34;67.82;100846.63;10481645;28;20420;-67
2023/11/18 00:48:10;;;;;;;43.10;4.53;;;;;;;4.19;68.25;100849.50;10471013;28;20516;-68
2023/11/18 00:53:12;;;;;;;14.35;4.93;;;;;;;4.21;68.58;100852.09;10501750;28;20036;-68
2023/11/18 00:58:14;;;;;;;16.00;5.30;;;;;;;4.35;68.21;100843.13;10501250;28;20055;-68
2023/11/18 01:03:16;;;;;;;89.15;5.60;;;;;;;4.41;68.54;100837.84;10499777;28;20724;-68
2023/11/18 01:08:18;;;;;;;19.08;4.22;;;;;;;4.62;68.29;100832.22;10500911;28;20135;-67
2023/11/18 01:13:20;;;;;;;15.60;4.13;;;;;;;4.69;68.14;100832.94;10502886;28;20083;-68
2023/11/18 01:18:22;;;;;;;20.23;5.47;;;;;;;4.61;67.85;100845.22;10500269;28;20048;-67
2023/11/18 01:23:24;;;;;;;9.63;3.78;;;;;;;4.41;67.90;100845.59;10497686;28;20120;-67
2023/11/18 01:28:29;;;;;;;60.13;4.78;;;;;;;4.25;68.19;100828.66;10480110;28;20048;-67
2023/11/18 01:33:37;;;;;;;9.77;4.28;;;;;;;4.40;68.97;100832.69;10479169;28;20098;-66
2023/11/18 01:38:39;;;;;;;19.05;6.07;;;;;;;4.52;68.34;100828.13;10518920;28;20105;-67
2023/11/18 01:43:41;;;;;;;13.65;5.47;;;;;;;4.50;68.55;100829.88;10504516;28;20052;-67
2023/11/18 01:48:44;;;;;;;11.25;4.63;;;;;;;4.52;68.26;100835.91;10522128;28;20052;-66
2023/11/18 01:53:47;;;;;;;22.17;4.45;;;;;;;4.48;68.41;100836.84;10495159;28;20044;-67
2023/11/18 01:58:51;;;;;;;52.15;5.18;;;;;;;4.41;68.31;100826.66;10506027;28;20058;-67
2023/11/18 02:03:54;;;;;;;13.27;5.25;;;;;;;4.43;68.39;100830.06;10484561;28;20044;-66
2023/11/18 02:08:56;;;;;;;11.18;3.50;;;;;;;4.27;68.23;100849.38;10499523;28;20044;-65
2023/11/18 02:14:04;;;;;;;12.48;4.25;;;;;;;4.39;68.53;100855.13;10516840;28;20062;-66
2023/11/18 02:19:21;;;;;;;12.25;3.67;;;;;;;4.51;68.51;100864.44;10485095;28;20381;-67
2023/11/18 02:24:36;;;;;;;72.50;5.07;;;;;;;4.38;67.96;100865.53;10517607;28;20075;-66
2023/11/18 02:29:43;;;;;;;49.72;4.93;;;;;;;4.38;68.25;100848.28;10517157;28;20423;-67
2023/11/18 02:34:58;;;;;;;12.55;3.95;;;;;;;4.39;68.26;100857.72;10500313;28;20071;-67
2023/11/18 02:40:14;;;;;;;120.57;5.80;;;;;;;4.47;68.21;100853.28;10496496;28;20044;-67
2023/11/18 02:45:17;;;;;;;55.80;4.78;;;;;;;4.48;67.79;100854.13;10506976;28;20502;-66
2023/11/18 02:50:20;;;;;;;8.98;3.85;;;;;;;4.17;67.88;100848.69;10484823;28;20089;-66
2023/11/18 02:55:24;;;;;;;8.00;3.80;;;;;;;4.14;67.85;100840.13;10503593;28;20040;-66
2023/11/18 03:00:26;;;;;;;6.22;3.47;;;;;;;3.99;68.25;100841.25;10485717;28;20131;-66
2023/11/18 03:05:31;;;;;;;13.15;3.75;;;;;;;4.22;68.40;100839.09;10484972;28;20052;-66
2023/11/18 03:10:34;;;;;;;37.45;4.32;;;;;;;4.19;67.94;100823.63;10489471;28;20044;-66
2023/11/18 03:15:37;;;;;;;22.10;4.60;;;;;;;4.21;67.87;100824.44;10494395;28;20052;-67
2023/11/18 03:20:39;;;;;;;7.80;3.47;;;;;;;4.31;67.90;100832.91;10513572;28;20047;-67
2023/11/18 03:25:41;;;;;;;6.63;3.55;;;;;;;4.43;68.14;100837.81;10496920;28;20564;-66
2023/11/18 03:30:43;;;;;;;13.90;3.35;;;;;;;4.50;67.58;100835.06;10495646;28;20072;-67
2023/11/18 03:35:45;;;;;;;9.82;3.97;;;;;;;4.43;67.42;100841.25;10492562;28;20047;-67
2023/11/18 03:40:47;;;;;;;72.40;4.40;;;;;;;4.18;67.48;100842.63;10483868;28;20043;-67
2023/11/18 03:45:49;;;;;;;42.97;4.60;;;;;;;4.04;68.11;100834.28;10484642;28;20036;-67
2023/11/18 03:50:52;;;;;;;6.50;3.03;;;;;;;4.28;67.92;100826.03;10481512;28;20048;-66
2023/11/18 03:55:54;;;;;;;5.22;3.00;;;;;;;4.14;67.46;100825.47;10482618;28;20058;-66
2023/11/18 04:00:57;;;;;;;20.90;3.85;;;;;;;3.98;67.74;100808.53;10498741;28;20105;-67
2023/11/18 04:05:59;;;;;;;28.58;4.35;;;;;;;3.94;68.31;100817.22;10499838;28;20050;-66
2023/11/18 04:11:02;;;;;;;13.15;3.35;;;;;;;4.16;67.98;100804.72;10508188;28;20044;-66
2023/11/18 04:16:05;;;;;;;7.97;3.67;;;;;;;4.09;68.25;100813.50;10483876;28;20052;-67
2023/11/18 04:21:09;;;;;;;40.38;4.88;;;;;;;4.21;67.90;100813.25;10496027;28;20047;-67
2023/11/18 04:26:12;;;;;;;87.63;5.10;;;;;;;4.24;67.76;100816.63;10490600;28;20052;-67
2023/11/18 04:31:14;;;;;;;7.57;3.50;;;;;;;4.19;68.11;100828.78;10494800;28;20732;-67
2023/11/18 04:36:17;;;;;;;8.50;3.20;;;;;;;4.28;67.85;100833.81;10478991;28;20480;-67
2023/11/18 04:41:19;;;;;;;5.70;3.53;;;;;;;4.32;67.52;100826.81;10477851;28;20043;-66
2023/11/18 04:46:21;;;;;;;6.57;3.28;;;;;;;4.36;67.66;100828.47;10504361;28;20044;-67
2023/11/18 04:51:23;;;;;;;10.25;4.45;;;;;;;4.24;67.46;100826.97;10508648;28;20048;-67
2023/11/18 04:56:26;;;;;;;14.45;4.13;;;;;;;4.29;67.68;100808.78;10507464;28;20502;-65
2023/11/18 05:01:28;;;;;;;6.90;2.83;;;;;;;4.25;67.55;100809.72;10510516;28;20405;-67
2023/11/18 05:06:30;;;;;;;9.00;3.85;;;;;;;4.24;67.53;100810.59;10512833;28;20055;-67
2023/11/18 05:11:32;;;;;;;8.35;3.78;;;;;;;4.05;67.60;100799.72;10514180;28;20135;-67
2023/11/18 05:16:34;;;;;;;8.65;3.70;;;;;;;4.05;67.85;100784.22;10519201;28;20143;-66
2023/11/18 05:21:36;;;;;;;42.45;3.33;;;;;;;3.86;67.94;100777.69;10501960;28;20546;-67
2023/11/18 05:26:38;;;;;;;6.95;3.30;;;;;;;3.97;68.15;100774.88;10519914;28;20051;-67
2023/11/18 05:31:41;;;;;;;9.73;4.32;;;;;;;4.10;68.28;100781.53;10521122;28;20126;-67
2023/11/18 05:36:43;;;;;;;17.83;3.53;;;;;;;4.12;67.90;100775.44;10501829;28;20590;-66
2023/11/18 05:41:49;;;;;;;6.45;3.15;;;;;;;4.16;67.98;100768.47;10519800;28;20055;-66
2023/11/18 05:46:51;;;;;;;7.95;3.85;;;;;;;4.18;67.89;100770.16;10522837;28;21110;-66
2023/11/18 05:51:54;;;;;;;48.05;4.43;;;;;;;4.21;67.72;100769.25;10520741;28;20082;-66
2023/11/18 05:56:56;;;;;;;11.02;3.70;;;;;;;4.26;67.85;100770.84;10520298;28;20150;-66
2023/11/18 06:02:03;;;;;;;10.88;4.22;;;;;;;4.22;67.36;100764.03;10521600;28;20044;-66
2023/11/18 06:07:06;;;;;;;13.25;3.63;;;;;;;4.24;67.69;100762.25;10522112;28;20460;-67
2023/11/18 06:12:10;;;;;;;24.15;4.15;;;;;;;4.18;67.43;100769.28;10513606;28;20075;-65
2023/11/18 06:17:13;;;;;;;12.68;3.83;;;;;;;3.94;67.44;100768.06;10505114;28;21928;-65
2023/11/18 06:22:15;;;;;;;52.97;3.92;;;;;;;3.98;67.83;100755.91;10504799;28;20048;-66
2023/11/18 06:27:18;;;;;;;10.23;3.33;;;;;;;4.14;67.85;100752.97;10503135;28;20097;-66
2023/11/18 06:32:20;;;;;;;43.35;4.00;;;;;;;4.21;67.47;100764.88;10504725;28;20044;-66
2023/11/18 06:37:22;;;;;;;18.67;3.22;;;;;;;4.07;67.27;100773.84;10503126;28;20066;-66
2023/11/18 06:42:24;;;;;;;6.82;2.90;;;;;;;3.96;67.35;100775.78;10505300;28;20040;-66
2023/11/18 06:47:27;;;;;;;6.13;2.95;;;;;;;3.97;67.83;100772.28;10476356;28;20066;-66
2023/11/18 06:52:29;;;;;;;5.03;2.83;;;;;;;4.02;67.68;100766.16;10504445;28;20048;-66
2023/11/18 06:57:32;;;;;;;9.48;3.55;;;;;;;4.11;67.66;100747.84;10502713;28;20390;-65
2023/11/18 07:02:34;;;;;;;27.80;4.00;;;;;;;3.93;67.66;100744.78;10508826;28;20052;-66
2023/11/18 07:07:37;;;;;;;9.93;3.88;;;;;;;3.89;67.82;100746.56;10515316;28;20079;-66
2023/11/18 07:12:39;;;;;;;27.52;3.50;;;;;;;3.99;67.68;100750.69;10512856;28;20048;-67
2023/11/18 07:17:42;;;;;;;37.75;4.32;;;;;;;4.14;67.83;100745.22;10516011;28;20048;-67
2023/11/18 07:22:44;;;;;;;46.38;4.15;;;;;;;4.18;67.40;100777.91;10491060;28;20131;-68
2023/11/18 07:27:47;;;;;;;6.82;3.20;;;;;;;4.13;67.56;100773.72;10517966;28;20097;-68
2023/11/18 07:32:50;;;;;;;15.60;3.28;;;;;;;4.13;67.32;100765.97;10498346;28;20136;-68
2023/11/18 07:37:53;;;;;;;6.88;3.25;;;;;;;4.12;67.71;100774.59;10473004;28;20042;-68
2023/11/18 07:43:01;;;;;;;10.48;3.70;;;;;;;4.23;67.27;100777.81;10513862;28;20040;-68
2023/11/18 07:48:07;;;;;;;8.93;3.72;;;;;;;4.25;67.34;100782.06;10491744;28;20051;-68
2023/11/18 07:53:10;;;;;;;12.98;2.85;;;;;;;4.28;67.36;100787.19;10513690;28;20525;-68
2023/11/18 07:58:12;;;;;;;10.65;4.63;;;;;;;4.30;67.42;100785.44;10483160;28;20130;-68
2023/11/18 08:03:15;;;;;;;7.22;3.53;;;;;;;4.33;67.36;100787.94;10517806;28;20063;-67
2023/11/18 08:08:17;;;;;;;45.85;4.40;;;;;;;4.38;67.18;100774.91;10516444;28;20039;-68
2023/11/18 08:13:19;;;;;;;36.63;4.28;;;;;;;4.41;67.32;100780.84;10514733;28;20059;-67
2023/11/18 08:18:21;;;;;;;10.75;3.67;;;;;;;4.50;67.17;100780.69;10511645;28;20043;-68
2023/11/18 08:23:24;;;;;;;8.57;3.65;;;;;;;4.51;67.19;100764.25;10513821;28;20040;-67
2023/11/18 08:28:26;;;;;;;10.45;4.05;;;;;;;4.51;67.25;100764.25;10514878;28;20083;-67
2023/11/18 08:33:28;;;;;;;8.88;4.13;;;;;;;4.50;67.10;100756.50;10513902;28;20558;-65
2023/11/18 08:38:31;;;;;;;12.52;4.68;;;;;;;4.78;67.35;100751.56;10511642;28;20152;-68
2023/11/18 08:43:33;;;;;;;11.18;4.13;;;;;;;4.69;66.92;100748.31;10515331;28;20102;-67
2023/11/18 08:48:35;;;;;;;68.32;5.45;;;;;;;4.63;67.18;100743.28;10511106;28;20138;-66
2023/11/18 08:53:41;;;;;;;15.60;4.82;;;;;;;4.57;67.52;100748.59;10490920;28;20616;-67
2023/11/18 08:58:45;;;;;;;16.90;5.57;;;;;;;4.58;67.25;100755.47;10512371;28;20052;-67
2023/11/18 09:03:52;;;;;;;17.02;4.05;;;;;;;4.41;67.72;100751.53;10496691;28;20126;-68
2023/11/18 09:08:57;;;;;;;17.88;5.28;;;;;;;4.32;67.99;100751.72;10492434;28;20048;-67
2023/11/18 09:14:00;;;;;;;13.00;4.75;;;;;;;4.57;67.79;100753.78;10512229;28;20056;-68
2023/11/18 09:19:05;;;;;;;13.40;4.82;;;;;;;4.81;67.29;100747.16;10510031;28;20484;-68
2023/11/18 09:24:12;;;;;;;14.35;5.38;;;;;;;4.89;67.40;100742.66;10511555;28;20664;-68
2023/11/18 09:29:17;;;;;;;14.75;5.30;;;;;;;4.88;67.23;100743.56;10492180;28;20185;-67
2023/11/18 09:34:26;;;;;;;11.18;5.40;;;;;;;4.97;67.14;100739.88;10514119;28;20783;-67
2023/11/18 09:39:37;;;;;;;12.50;5.18;;;;;;;5.18;67.26;100747.13;10478423;28;20063;-68
2023/11/18 09:44:39;;;;;;;17.90;6.55;;;;;;;5.39;66.86;100746.59;10488856;28;20044;-68
2023/11/18 09:49:45;;;;;;;14.68;5.68;;;;;;;5.34;66.48;100738.94;10513710;28;20063;-67
2023/11/18 09:55:03;;;;;;;10.90;5.47;;;;;;;5.32;66.49;100732.06;10512899;28;20039;-68
2023/11/18 10:05:30;;;;;;;11.98;5.28;;;;;;;5.48;66.43;100748.94;10502946;28;20055;-68
2023/11/18 10:10:45;;;;;;;12.20;5.47;;;;;;;5.69;66.38;100740.59;10517079;28;20438;-68
2023/11/18 10:15:52;;;;;;;9.00;4.20;;;;;;;5.95;65.99;100738.13;10514425;28;20059;-68
2023/11/18 10:20:54;;;;;;;12.32;5.75;;;;;;;6.00;66.01;100735.41;10518253;28;20040;-67
2023/11/18 10:25:58;;;;;;;14.02;6.15;;;;;;;5.96;65.85;100719.06;10496104;28;20809;-68
2023/11/18 10:31:04;;;;;;;12.43;4.65;;;;;;;5.98;65.82;100706.88;10514791;28;20047;-67
2023/11/18 10:36:22;;;;;;;10.38;4.90;;;;;;;5.94;66.24;100717.41;10505102;28;20826;-68
2023/11/18 10:41:25;;;;;;;11.48;5.00;;;;;;;5.93;66.14;100693.19;10497157;28;20054;-68
2023/11/18 10:46:27;;;;;;;11.02;4.88;;;;;;;5.98;65.91;100686.09;10501685;28;20050;-68
2023/11/18 10:51:33;;;;;;;10.85;4.60;;;;;;;5.90;66.06;100674.28;10509543;28;20040;-68
2023/11/18 10:56:38;;;;;;;12.88;5.63;;;;;;;6.05;65.89;100679.00;10513501;28;20143;-68
2023/11/18 11:01:43;;;;;;;10.50;5.78;;;;;;;6.20;65.75;100661.22;10517977;28;20047;-68
2023/11/18 11:06:52;;;;;;;15.65;6.05;;;;;;;6.00;66.29;100647.97;10499565;28;20070;-68
2023/11/18 11:11:59;;;;;;;11.02;5.45;;;;;;;6.14;66.07;100639.78;10499959;28;20036;-68
2023/11/18 11:17:12;;;;;;;13.52;5.82;;;;;;;6.19;66.07;100628.34;10518257;28;20141;-69
2023/11/18 11:22:23;;;;;;;13.43;6.07;;;;;;;6.30;66.13;100608.13;10516761;28;20631;-68
2023/11/18 11:27:38;;;;;;;10.60;5.15;;;;;;;6.36;66.14;100594.09;10517450;28;20055;-67
2023/11/18 11:32:58;;;;;;;11.70;5.10;;;;;;;6.54;65.75;100583.09;10517115;28;20047;-67
2023/11/18 11:38:03;;;;;;;11.85;5.07;;;;;;;6.59;66.10;100576.00;10498332;28;20036;-68
2023/11/18 11:43:15;;;;;;;10.90;5.70;;;;;;;6.68;65.94;100572.22;10498932;28;20039;-67
2023/11/18 11:48:27;;;;;;;11.23;5.30;;;;;;;6.81;65.68;100550.13;10515781;28;20545;-67
2023/11/18 11:53:39;;;;;;;9.85;4.90;;;;;;;6.71;65.46;100541.81;10516947;28;20048;-67
2023/11/18 11:58:44;;;;;;;12.35;5.70;;;;;;;6.76;65.73;100533.81;10516103;28;20040;-67
2023/11/18 12:03:47;;;;;;;11.95;5.05;;;;;;;6.87;65.92;100544.72;10516747;28;20048;-67
2023/11/18 12:08:54;;;;;;;9.45;4.07;;;;;;;7.02;65.75;100542.41;10515431;28;20492;-66
2023/11/18 12:14:41;;;;;;;11.85;5.18;;;;;;;6.90;65.33;100534.19;10515614;28;20051;-67
2023/11/18 12:19:46;;;;;;;10.68;5.07;;;;;;;6.73;66.00;100526.16;10509905;28;20044;-67
2023/11/18 12:25:15;;;;;;;11.52;5.68;;;;;;;6.67;66.20;100531.56;10515075;28;20115;-67
2023/11/18 12:30:22;;;;;;;9.85;4.85;;;;;;;6.74;65.99;100517.44;10501375;28;20044;-67
2023/11/18 12:35:29;;;;;;;9.73;4.90;;;;;;;6.90;65.95;100505.59;10514976;28;20101;-68
2023/11/18 12:40:50;;;;;;;12.80;5.30;;;;;;;6.82;66.25;100498.06;10511204;28;20056;-68
2023/11/18 12:46:24;;;;;;;14.40;5.50;;;;;;;6.86;66.63;100488.41;10513526;28;20679;-68
2023/11/18 12:51:26;;;;;;;10.63;4.85;;;;;;;6.98;66.35;100467.16;10464510;28;20368;-67
2023/11/18 12:56:30;;;;;;;11.60;5.25;;;;;;;7.07;66.30;100457.28;10515691;28;20151;-67
2023/11/18 13:01:36;;;;;;;12.82;6.10;;;;;;;7.09;66.33;100446.81;10514306;28;20120;-68
2023/11/18 13:06:38;;;;;;;9.82;4.45;;;;;;;7.07;65.95;100433.03;10496831;28;20052;-67
2023/11/18 13:11:42;;;;;;;10.88;4.75;;;;;;;6.93;66.62;100423.16;10479833;28;20142;-68
2023/11/18 13:16:45;;;;;;;8.30;3.97;;;;;;;7.00;66.77;100421.16;10515023;28;20850;-68
2023/11/18 13:21:48;;;;;;;9.60;4.43;;;;;;;7.04;66.66;100405.38;10514352;28;20044;-68
2023/11/18 13:26:50;;;;;;;10.02;4.32;;;;;;;7.09;66.94;100400.00;10515188;28;20453;-68
2023/11/18 13:31:52;;;;;;;9.85;5.20;;;;;;;7.17;66.69;100378.00;10507970;28;20071;-68
2023/11/18 13:36:56;;;;;;;10.98;5.07;;;;;;;7.12;66.88;100389.50;10521872;28;20071;-67
2023/11/18 13:42:18;;;;;;;8.73;4.32;;;;;;;6.95;67.62;100389.28;10498771;28;20069;-68
2023/11/18 13:47:22;;;;;;;10.30;4.95;;;;;;;7.09;67.47;100398.25;10515403;28;20052;-68
2023/11/18 13:52:25;;;;;;;8.50;4.85;;;;;;;7.04;67.49;100391.56;10517678;28;20261;-68
2023/11/18 13:57:27;;;;;;;11.32;4.90;;;;;;;7.10;67.51;100370.50;10519944;28;20079;-68
2023/11/18 14:02:29;;;;;;;9.27;4.78;;;;;;;7.25;67.30;100356.03;10474596;28;20048;-68
2023/11/18 14:07:38;;;;;;;13.05;6.30;;;;;;;7.27;67.34;100341.22;10498726;28;20048;-67
2023/11/18 14:12:58;;;;;;;11.80;5.55;;;;;;;7.28;67.66;100364.59;10518649;28;20094;-68
2023/11/18 14:18:02;;;;;;;14.55;6.40;;;;;;;7.13;67.28;100357.38;10518733;28;20573;-68
2023/11/18 14:23:04;;;;;;;14.10;5.93;;;;;;;7.14;67.31;100333.06;10518637;28;20063;-68
2023/11/18 14:28:08;;;;;;;12.70;4.90;;;;;;;7.18;67.36;100337.25;10518934;28;20105;-67
2023/11/18 14:33:11;;;;;;;9.43;4.55;;;;;;;7.27;67.60;100331.66;10520034;28;20044;-68
2023/11/18 14:38:13;;;;;;;6.80;3.70;;;;;;;7.37;67.56;100325.19;10520299;28;20044;-67
2023/11/18 14:43:15;;;;;;;12.15;5.18;;;;;;;7.36;67.57;100315.69;10519652;28;20044;-68
2023/11/18 14:48:17;;;;;;;8.35;4.65;;;;;;;7.39;67.71;100304.28;10518056;28;20415;-67
2023/11/18 14:53:19;;;;;;;6.10;2.90;;;;;;;7.32;67.77;100288.09;10518132;28;20035;-68
2023/11/18 14:58:22;;;;;;;6.93;3.70;;;;;;;7.36;67.86;100288.81;10518664;28;20047;-67
2023/11/18 15:03:23;;;;;;;9.48;2.85;;;;;;;7.28;68.00;100283.94;10497585;28;20048;-67
2023/11/18 15:08:26;;;;;;;4.65;2.35;;;;;;;7.26;68.11;100269.28;10518787;28;20056;-67
2023/11/18 15:13:28;;;;;;;7.28;2.60;;;;;;;7.17;68.43;100249.69;10517315;28;20646;-67
2023/11/18 15:18:30;;;;;;;5.68;2.90;;;;;;;7.12;68.69;100249.06;10499051;28;20058;-68
2023/11/18 15:23:32;;;;;;;5.57;2.75;;;;;;;7.17;68.60;100262.69;10483547;28;20139;-67
2023/11/18 15:28:34;;;;;;;6.15;2.85;;;;;;;7.16;68.76;100219.41;10499217;28;20507;-67
2023/11/18 15:33:38;;;;;;;5.10;2.70;;;;;;;7.13;68.89;100215.19;10517092;28;20044;-67
2023/11/18 15:38:41;;;;;;;3.83;2.28;;;;;;;7.05;69.14;100195.59;10518038;28;20063;-67
2023/11/18 15:43:43;;;;;;;4.43;2.63;;;;;;;7.01;69.19;100178.41;10498864;28;20290;-67
2023/11/18 15:48:47;;;;;;;7.22;2.70;;;;;;;7.05;69.22;100175.63;10516816;28;20503;-67
2023/11/18 15:53:49;;;;;;;6.38;2.75;;;;;;;7.10;69.19;100163.28;10515900;28;20052;-65
2023/11/18 15:58:51;;;;;;;5.07;2.45;;;;;;;7.16;69.10;100157.81;10516710;28;20411;-67
2023/11/18 16:03:53;;;;;;;4.25;2.33;;;;;;;7.11;69.18;100148.53;10516461;28;20774;-67
2023/11/18 16:08:55;;;;;;;4.28;2.58;;;;;;;7.03;69.34;100143.66;10516183;28;20515;-67
2023/11/18 16:13:59;;;;;;;3.13;1.98;;;;;;;7.05;69.46;100107.16;10515500;28;20072;-65
2023/11/18 16:19:01;;;;;;;3.78;1.67;;;;;;;7.10;69.43;100079.22;10513534;28;20044;-65
2023/11/18 16:24:04;;;;;;;4.70;1.70;;;;;;;7.04;69.47;100063.88;10507855;28;20054;-66
2023/11/18 16:29:06;;;;;;;2.45;1.63;;;;;;;7.02;69.67;100055.31;10493127;28;20774;-66
2023/11/18 16:34:08;;;;;;;2.60;1.40;;;;;;;7.03;69.63;100051.78;10507000;28;20135;-66
2023/11/18 16:39:12;;;;;;;3.28;1.45;;;;;;;7.01;69.65;100033.66;10511805;28;20377;-66
2023/11/18 16:44:14;;;;;;;3.70;1.67;;;;;;;7.02;69.68;100060.50;10496101;28;20401;-66
2023/11/18 16:49:16;;;;;;;2.15;1.50;;;;;;;7.15;69.60;100043.44;10488795;28;20050;-66
2023/11/18 16:54:19;;;;;;;2.75;1.50;;;;;;;7.25;69.40;100028.28;10509419;28;20067;-66
2023/11/18 16:59:36;;;;;;;1.45;1.05;;;;;;;7.19;69.53;100034.59;10514300;28;20051;-66
2023/11/18 17:04:39;;;;;;;3.05;1.50;;;;;;;7.15;69.72;100036.50;10514321;28;20488;-66
2023/11/18 17:09:42;;;;;;;2.88;1.40;;;;;;;7.17;69.69;100013.00;10518963;28;20039;-66
2023/11/18 17:14:44;;;;;;;2.28;1.10;;;;;;;7.27;69.61;100026.44;10505040;28;20080;-68
2023/11/18 17:19:46;;;;;;;1.52;1.20;;;;;;;7.38;69.41;100016.41;10523284;28;20055;-67
2023/11/18 17:24:48;;;;;;;2.15;1.40;;;;;;;7.46;69.31;100014.31;10504430;28;20070;-67
2023/11/18 17:29:50;;;;;;;2.33;1.30;;;;;;;7.31;69.43;99986.38;10504641;28;20072;-66
2023/11/18 17:34:52;;;;;;;3.13;1.20;;;;;;;7.34;69.63;99978.44;10520354;28;20519;-66
2023/11/18 17:39:54;;;;;;;1.85;1.17;;;;;;;7.36;69.34;99977.47;10514028;28;20036;-67
2023/11/18 17:44:57;;;;;;;2.25;1.13;;;;;;;7.32;69.49;99965.50;10513112;28;20055;-67
2023/11/18 17:50:01;;;;;;;1.25;1.10;;;;;;;7.31;69.50;99962.97;10519802;28;20412;-67
2023/11/18 17:55:04;;;;;;;1.38;0.88;;;;;;;7.33;69.48;99967.19;10517930;28;20048;-68
2023/11/18 18:00:20;;;;;;;1.52;1.20;;;;;;;7.40;69.34;99979.00;10514840;28;20044;-67
2023/11/18 18:05:25;;;;;;;2.45;1.50;;;;;;;7.38;69.47;99970.44;10515023;28;20780;-67
2023/11/18 18:10:28;;;;;;;2.25;1.40;;;;;;;7.25;69.88;99961.50;10497637;28;20060;-67
2023/11/18 18:15:30;;;;;;;2.88;1.20;;;;;;;7.29;69.88;99954.38;10518303;28;20067;-67
2023/11/18 18:20:32;;;;;;;1.38;1.20;;;;;;;7.42;69.75;99942.50;10511299;28;20054;-67
2023/11/18 18:25:34;;;;;;;2.03;1.30;;;;;;;7.48;69.56;99945.66;10519322;28;20047;-67
2023/11/18 18:30:36;;;;;;;2.03;1.42;;;;;;;7.42;69.45;99938.16;10519507;28;20063;-67
2023/11/18 18:35:39;;;;;;;5.20;1.35;;;;;;;7.40;69.61;99926.97;10520180;28;20526;-67
2023/11/18 18:40:41;;;;;;;2.17;1.30;;;;;;;7.39;69.64;99919.22;10519413;28;20543;-67
2023/11/18 18:45:43;;;;;;;2.60;1.45;;;;;;;7.52;69.59;99928.16;10520337;28;20044;-66
2023/11/18 18:50:46;;;;;;;2.92;1.42;;;;;;;7.63;69.37;99924.09;10515673;28;20086;-66
2023/11/18 18:55:48;;;;;;;4.82;2.03;;;;;;;7.58;69.26;99915.69;10513148;28;20123;-66
2023/11/18 19:00:52;;;;;;;2.25;1.30;;;;;;;7.59;69.36;99919.97;10499790;28;20047;-67
2023/11/18 19:05:54;;;;;;;2.08;1.40;;;;;;;7.57;69.34;99915.78;10515224;28;20063;-67
2023/11/18 19:10:56;;;;;;;2.10;1.23;;;;;;;7.56;69.37;99914.94;10499198;28;20495;-66
2023/11/18 19:15:59;;;;;;;2.13;1.20;;;;;;;7.57;69.46;99907.97;10514593;28;20127;-66
2023/11/18 19:21:01;;;;;;;2.17;1.48;;;;;;;7.52;69.56;99879.56;10513449;28;20569;-67
2023/11/18 19:26:07;;;;;;;2.58;1.50;;;;;;;7.44;69.69;99866.06;10495271;28;20044;-67
2023/11/18 19:31:10;;;;;;;1.98;1.13;;;;;;;7.51;69.97;99841.41;10487829;28;20077;-67
2023/11/18 19:36:12;;;;;;;1.55;1.10;;;;;;;7.55;69.81;99836.94;10495154;28;20044;-66
2023/11/18 19:41:14;;;;;;;2.00;1.42;;;;;;;7.61;69.62;99831.44;10513978;28;20159;-66
2023/11/18 19:46:17;;;;;;;2.33;1.30;;;;;;;7.61;69.52;99842.66;10513613;28;20075;-66
2023/11/18 19:51:19;;;;;;;4.35;1.73;;;;;;;7.53;69.74;99842.19;10479142;28;20132;-66
2023/11/18 19:56:23;;;;;;;2.00;1.40;;;;;;;7.48;69.81;99854.59;10495088;28;20068;-67
2023/11/18 20:01:25;;;;;;;3.05;1.90;;;;;;;7.54;69.93;99856.06;10491291;28;20052;-66
2023/11/18 20:06:27;;;;;;;2.60;1.65;;;;;;;7.65;69.63;99848.56;10515114;28;20138;-65
2023/11/18 20:11:30;;;;;;;2.83;1.50;;;;;;;7.72;69.46;99849.94;10516178;28;20190;-65
2023/11/18 20:16:33;;;;;;;3.70;1.83;;;;;;;7.73;69.42;99851.66;10515737;28;20419;-66
2023/11/18 20:21:36;;;;;;;24.48;10.48;;;;;;;7.63;69.69;99850.41;10515405;28;20048;-65
2023/11/18 20:26:38;;;;;;;36.47;15.82;;;;;;;7.74;69.70;99841.16;10513038;28;20044;-65
2023/11/18 20:31:40;;;;;;;40.15;16.45;;;;;;;7.85;69.39;99828.41;10515188;28;20101;-66
2023/11/18 20:36:43;;;;;;;16.52;7.05;;;;;;;7.88;69.36;99812.66;10515862;28;20047;-66
2023/11/18 20:41:47;;;;;;;18.20;8.23;;;;;;;7.90;69.28;99807.38;10496425;28;20461;-66
2023/11/18 20:46:49;;;;;;;35.50;8.43;;;;;;;7.82;69.40;99797.34;10515098;28;20044;-65
2023/11/18 20:51:53;;;;;;;13.32;5.53;;;;;;;7.83;69.49;99799.03;10513929;28;20074;-65
2023/11/18 20:56:55;;;;;;;21.13;5.38;;;;;;;7.79;69.49;99789.69;10515705;28;20658;-66
2023/11/18 21:01:57;;;;;;;12.52;6.22;;;;;;;7.79;69.55;99779.25;10513726;28;20051;-66
2023/11/18 21:06:59;;;;;;;13.30;6.03;;;;;;;7.76;69.49;99770.78;10514893;28;20488;-66
2023/11/18 21:12:01;;;;;;;9.00;4.93;;;;;;;7.70;69.64;99761.53;10514307;28;20446;-65
2023/11/18 21:17:24;;;;;;;8.52;4.60;;;;;;;7.78;69.72;99751.56;10514516;28;20060;-65
2023/11/18 21:22:27;;;;;;;7.28;3.95;;;;;;;7.75;69.60;99741.28;10514006;28;20047;-64
2023/11/18 21:27:29;;;;;;;7.40;3.55;;;;;;;7.70;69.64;99747.66;10514356;28;20523;-65
2023/11/18 21:32:31;;;;;;;8.75;3.30;;;;;;;7.74;69.71;99725.75;10512901;28;20234;-65
2023/11/18 21:37:33;;;;;;;6.70;2.78;;;;;;;7.81;69.73;99732.34;10514253;28;20122;-68
2023/11/18 21:42:38;;;;;;;4.80;2.60;;;;;;;7.81;69.51;99714.94;10513593;28;20411;-65
2023/11/18 21:47:44;;;;;;;4.60;2.65;;;;;;;7.81;69.80;99720.16;10497039;28;20080;-67
2023/11/18 21:52:47;;;;;;;4.68;2.30;;;;;;;7.90;69.49;99703.22;10511192;28;20059;-65
2023/11/18 21:57:50;;;;;;;3.47;2.08;;;;;;;7.95;69.58;99693.41;10520954;28;20745;-65
2023/11/18 22:02:53;;;;;;;3.88;2.10;;;;;;;7.86;69.65;99678.25;10519232;28;20055;-65
2023/11/18 22:07:55;;;;;;;3.78;2.10;;;;;;;7.88;69.65;99668.59;10519548;28;20044;-66
2023/11/18 22:12:57;;;;;;;4.10;2.40;;;;;;;7.94;69.50;99657.88;10520212;28;20416;-66
2023/11/18 22:17:59;;;;;;;4.32;2.20;;;;;;;7.98;69.50;99670.66;10519564;28;20043;-66
2023/11/18 22:23:01;;;;;;;4.03;2.42;;;;;;;8.06;69.51;99651.19;10502178;28;20466;-65
2023/11/18 22:28:03;;;;;;;4.93;2.45;;;;;;;8.01;69.43;99660.09;10502930;28;20071;-65
2023/11/18 22:33:05;;;;;;;4.38;2.55;;;;;;;7.89;69.69;99657.28;10519932;28;20480;-65
2023/11/18 22:38:09;;;;;;;10.27;3.10;;;;;;;7.93;69.74;99641.44;10520332;28;20043;-66
2023/11/18 22:43:11;;;;;;;7.90;3.20;;;;;;;7.90;69.95;99648.53;10519556;28;20492;-65
2023/11/18 22:48:13;;;;;;;5.70;3.28;;;;;;;7.99;69.75;99651.50;10518827;28;20039;-65
2023/11/18 22:53:16;;;;;;;6.95;3.10;;;;;;;8.13;69.55;99653.41;10518662;28;20131;-66
2023/11/18 22:58:19;;;;;;;26.48;4.13;;;;;;;8.25;69.37;99633.66;10519573;28;20079;-66
2023/11/18 23:03:21;;;;;;;9.23;2.90;;;;;;;8.26;69.16;99627.53;10518029;28;20048;-66
2023/11/18 23:08:23;;;;;;;7.10;3.08;;;;;;;8.24;69.17;99624.97;10482596;28;20064;-66
2023/11/18 23:13:25;;;;;;;6.90;3.38;;;;;;;7.98;69.27;99630.75;10518982;28;20056;-66
2023/11/18 23:18:28;;;;;;;5.30;2.78;;;;;;;7.76;70.04;99627.59;10517944;28;20235;-67
2023/11/18 23:23:30;;;;;;;4.30;2.13;;;;;;;7.84;70.18;99631.50;10518259;28;20400;-67
2023/11/18 23:28:33;;;;;;;5.50;2.70;;;;;;;8.00;70.08;99627.13;10497618;28;20044;-66
2023/11/18 23:33:35;;;;;;;5.05;3.05;;;;;;;8.17;69.86;99639.28;10518003;28;20042;-66
2023/11/18 23:38:37;;;;;;;6.15;3.05;;;;;;;8.11;69.55;99647.44;10516266;28;20155;-67